Time;durP1;ratioP1;P1;durP2;ratioP2;P2;SDS_P1;SDS_P2;PMS_P1;PMS_P2;Temp;Humidity;BMP_temperature;BMP_pressure;BME280_temperature;BME280_humidity;BME280_pressure;Samples;Min_cycle;Max_cycle;Signal;HPM_P1;HPM_P2
2023/03/16 00:01:07;;;;;;;24.02;13.57;;;;;;;;;;5020401;28;20034;-59
2023/03/16 00:03:32;;;;;;;30.48;14.18;;;;;;;;;;5019754;28;21123;-62
2023/03/16 00:05:58;;;;;;;28.38;14.25;;;;;;;;;;5021416;28;20025;-60
2023/03/16 00:08:23;;;;;;;24.63;13.80;;;;;;;;;;5022435;28;20034;-59
2023/03/16 00:10:48;;;;;;;23.52;12.07;;;;;;;;;;5020467;28;20120;-61
2023/03/16 00:13:17;;;;;;;28.73;12.45;;;;;;;;;;5021189;28;20490;-59
2023/03/16 00:15:53;;;;;;;28.05;12.15;;;;;;;;;;5018545;28;20107;-61
2023/03/16 00:18:18;;;;;;;27.10;12.80;;;;;;;;;;5021269;28;20029;-58
2023/03/16 00:20:43;;;;;;;29.38;14.43;;;;;;;;;;5022724;28;20037;-60
2023/03/16 00:23:09;;;;;;;27.27;14.50;;;;;;;;;;5024446;28;20121;-60
2023/03/16 00:25:34;;;;;;;30.38;13.38;;;;;;;;;;5021612;28;20029;-62
2023/03/16 00:28:02;;;;;;;27.08;14.50;;;;;;;;;;5020823;28;20044;-61
2023/03/16 00:30:28;;;;;;;30.33;14.18;;;;;;;;;;5020001;28;20809;-58
2023/03/16 00:32:54;;;;;;;31.67;14.73;;;;;;;;;;5019497;28;20485;-63
2023/03/16 00:35:20;;;;;;;25.10;14.27;;;;;;;;;;5021102;28;20104;-60
2023/03/16 00:37:45;;;;;;;27.90;13.70;;;;;;;;;;5020386;28;20157;-58
2023/03/16 00:40:11;;;;;;;28.92;14.02;;;;;;;;;;5018928;28;20033;-59
2023/03/16 00:42:36;;;;;;;29.65;14.32;;;;;;;;;;5020757;28;20041;-58
2023/03/16 00:45:02;;;;;;;30.98;14.25;;;;;;;;;;5016335;28;20766;-60
2023/03/16 00:47:29;;;;;;;26.10;13.57;;;;;;;;;;5022806;28;20576;-59
2023/03/16 00:49:55;;;;;;;27.73;14.02;;;;;;;;;;5020183;28;20087;-59
2023/03/16 00:52:22;;;;;;;31.00;14.23;;;;;;;;;;5020817;28;20026;-60
2023/03/16 00:54:48;;;;;;;27.17;13.88;;;;;;;;;;5025510;28;20068;-59
2023/03/16 00:57:15;;;;;;;32.03;13.98;;;;;;;;;;5018540;28;20057;-58
2023/03/16 00:59:41;;;;;;;31.25;15.07;;;;;;;;;;5020803;28;20025;-63
2023/03/16 01:02:07;;;;;;;32.88;14.07;;;;;;;;;;5021525;28;20037;-59
2023/03/16 01:04:34;;;;;;;30.17;14.07;;;;;;;;;;5021962;28;20112;-61
2023/03/16 01:06:59;;;;;;;;;;;;;;;;;;5020365;28;20700;-59
2023/03/16 01:09:25;;;;;;;28.70;12.87;;;;;;;;;;5018709;28;19913;-59
2023/03/16 01:11:53;;;;;;;27.10;12.45;;;;;;;;;;5018078;28;20283;-61
2023/03/16 01:14:18;;;;;;;29.08;13.18;;;;;;;;;;5014467;28;20080;-56
2023/03/16 01:16:44;;;;;;;30.92;14.45;;;;;;;;;;5023748;28;20025;-60
2023/03/16 01:19:11;;;;;;;30.77;14.68;;;;;;;;;;5031906;28;20461;-58
2023/03/16 01:21:37;;;;;;;34.42;15.10;;;;;;;;;;5034866;28;20040;-57
2023/03/16 01:24:03;;;;;;;32.70;14.80;;;;;;;;;;5020775;28;20042;-60
2023/03/16 01:26:28;;;;;;;31.52;15.27;;;;;;;;;;5024480;28;20029;-60
2023/03/16 01:28:54;;;;;;;28.90;14.20;;;;;;;;;;5028554;28;20080;-59
2023/03/16 01:31:20;;;;;;;34.40;14.93;;;;;;;;;;5022749;28;20029;-59
2023/03/16 01:33:46;;;;;;;33.55;15.45;;;;;;;;;;5020968;28;20037;-59
2023/03/16 01:36:17;;;;;;;32.78;13.90;;;;;;;;;;5022905;28;20124;-58
2023/03/16 01:38:48;;;;;;;31.67;13.52;;;;;;;;;;5023578;28;20060;-60
2023/03/16 01:41:14;;;;;;;32.92;13.13;;;;;;;;;;5030411;28;20467;-60
2023/03/16 01:43:40;;;;;;;27.17;12.68;;;;;;;;;;5030964;28;20069;-63
2023/03/16 01:46:06;;;;;;;30.55;14.45;;;;;;;;;;5023181;28;20239;-58
2023/03/16 01:48:41;;;;;;;29.70;13.68;;;;;;;;;;5022083;28;20428;-61
2023/03/16 01:51:13;;;;;;;28.50;13.38;;;;;;;;;;5021664;28;20060;-58
2023/03/16 01:53:40;;;;;;;25.77;13.38;;;;;;;;;;5015257;28;20037;-59
2023/03/16 01:56:07;;;;;;;29.52;13.40;;;;;;;;;;5021653;28;20623;-61
2023/03/16 01:58:33;;;;;;;28.48;13.90;;;;;;;;;;5035870;28;20045;-63
2023/03/16 02:00:58;;;;;;;28.85;13.77;;;;;;;;;;5024485;28;20359;-59
2023/03/16 02:03:25;;;;;;;27.42;14.27;;;;;;;;;;5020429;28;20030;-61
2023/03/16 02:06:09;;;;;;;31.98;14.70;;;;;;;;;;5022157;28;20025;-60
2023/03/16 02:08:39;;;;;;;29.15;14.18;;;;;;;;;;5022506;28;20041;-59
2023/03/16 02:11:05;;;;;;;32.55;14.82;;;;;;;;;;5022014;28;20139;-60
2023/03/16 02:13:48;;;;;;;29.50;13.55;;;;;;;;;;5010934;28;20037;-62
2023/03/16 02:16:18;;;;;;;31.08;14.88;;;;;;;;;;5032161;28;20033;-60
2023/03/16 02:18:44;;;;;;;31.30;13.68;;;;;;;;;;5038437;28;20140;-61
2023/03/16 02:21:10;;;;;;;29.77;14.23;;;;;;;;;;5020243;28;20037;-60
2023/03/16 02:23:36;;;;;;;25.25;13.35;;;;;;;;;;5021408;28;20293;-58
2023/03/16 02:26:04;;;;;;;27.90;14.45;;;;;;;;;;5023146;28;20026;-59
2023/03/16 02:28:37;;;;;;;32.33;15.02;;;;;;;;;;5038050;28;20056;-59
2023/03/16 02:31:03;;;;;;;31.17;14.50;;;;;;;;;;5029464;28;20816;-59
2023/03/16 02:33:31;;;;;;;31.30;14.00;;;;;;;;;;5008678;28;20030;-61
2023/03/16 02:35:56;;;;;;;28.65;13.38;;;;;;;;;;5019396;28;20037;-60
2023/03/16 02:38:21;;;;;;;36.08;15.35;;;;;;;;;;5022565;28;20025;-62
2023/03/16 02:40:57;;;;;;;29.80;14.63;;;;;;;;;;5022570;28;20502;-60
2023/03/16 02:43:24;;;;;;;25.20;12.55;;;;;;;;;;5019060;28;20486;-57
2023/03/16 02:46:03;;;;;;;26.15;13.55;;;;;;;;;;5020624;28;20149;-61
2023/03/16 02:48:52;;;;;;;28.15;13.63;;;;;;;;;;5020831;28;20033;-59
2023/03/16 02:51:18;;;;;;;27.25;12.70;;;;;;;;;;5019154;28;20115;-59
2023/03/16 02:53:43;;;;;;;21.67;11.00;;;;;;;;;;5022136;28;20036;-59
2023/03/16 02:56:09;;;;;;;27.85;13.52;;;;;;;;;;5021351;28;20041;-59
2023/03/16 02:58:35;;;;;;;27.80;12.40;;;;;;;;;;5021412;28;20382;-59
2023/03/16 03:01:05;;;;;;;25.40;12.73;;;;;;;;;;5021127;28;20096;-59
2023/03/16 03:03:33;;;;;;;;;;;;;;;;;;5023912;28;20033;-58
2023/03/16 03:05:58;;;;;;;39.30;14.90;;;;;;;;;;5021517;28;19917;-59
2023/03/16 03:08:24;;;;;;;45.35;16.38;;;;;;;;;;5019254;28;20036;-61
2023/03/16 03:10:50;;;;;;;41.13;15.00;;;;;;;;;;5019366;28;20364;-62
2023/03/16 03:13:15;;;;;;;42.30;17.92;;;;;;;;;;5021172;28;20134;-59
2023/03/16 03:15:41;;;;;;;38.95;17.52;;;;;;;;;;5027033;28;20116;-61
2023/03/16 03:18:09;;;;;;;60.35;20.48;;;;;;;;;;5020961;28;20072;-61
2023/03/16 03:20:34;;;;;;;96.40;29.88;;;;;;;;;;5020758;28;20146;-59
2023/03/16 03:22:59;;;;;;;74.20;26.33;;;;;;;;;;5020634;28;20037;-60
2023/03/16 03:25:25;;;;;;;66.35;21.80;;;;;;;;;;5020670;28;20423;-59
2023/03/16 03:27:55;;;;;;;43.72;17.77;;;;;;;;;;5021987;28;20041;-63
2023/03/16 03:30:23;;;;;;;32.67;14.95;;;;;;;;;;5021743;28;20561;-60
2023/03/16 03:32:48;;;;;;;33.97;15.23;;;;;;;;;;5020635;28;20064;-61
2023/03/16 03:35:15;;;;;;;34.45;14.63;;;;;;;;;;5018358;28;20045;-59
2023/03/16 03:37:43;;;;;;;29.10;13.50;;;;;;;;;;5017150;28;20042;-61
2023/03/16 03:40:09;;;;;;;31.17;13.82;;;;;;;;;;5022765;28;20107;-60
2023/03/16 03:42:35;;;;;;;32.88;15.27;;;;;;;;;;5021155;28;20037;-59
2023/03/16 03:45:01;;;;;;;31.10;14.20;;;;;;;;;;5022159;28;20025;-60
2023/03/16 03:47:26;;;;;;;26.35;13.25;;;;;;;;;;5026677;28;20140;-60
2023/03/16 03:49:51;;;;;;;25.88;12.55;;;;;;;;;;5021750;28;20032;-62
2023/03/16 03:52:17;;;;;;;26.50;13.23;;;;;;;;;;5020603;28;20025;-60
2023/03/16 03:54:42;;;;;;;29.55;11.82;;;;;;;;;;5020286;28;20109;-61
2023/03/16 03:57:12;;;;;;;24.70;12.25;;;;;;;;;;5017873;28;20045;-60
2023/03/16 03:59:42;;;;;;;26.75;12.02;;;;;;;;;;5018376;28;20075;-60
2023/03/16 04:02:40;;;;;;;25.80;11.45;;;;;;;;;;5018430;28;20041;-62
2023/03/16 04:05:12;;;;;;;28.77;12.90;;;;;;;;;;5018464;28;20375;-62
2023/03/16 04:07:37;;;;;;;29.25;12.82;;;;;;;;;;5012404;28;20551;-59
2023/03/16 04:10:06;;;;;;;23.25;11.10;;;;;;;;;;5020689;28;20033;-59
2023/03/16 04:12:36;;;;;;;24.10;11.63;;;;;;;;;;5007417;28;20490;-62
2023/03/16 04:15:02;;;;;;;29.27;12.18;;;;;;;;;;5016780;28;20039;-59
2023/03/16 04:17:33;;;;;;;30.30;14.65;;;;;;;;;;5011336;28;20025;-59
2023/03/16 04:20:00;;;;;;;27.75;12.70;;;;;;;;;;5023112;28;20095;-60
2023/03/16 04:22:29;;;;;;;23.65;11.13;;;;;;;;;;5036666;28;20127;-60
2023/03/16 04:24:54;;;;;;;25.83;11.98;;;;;;;;;;5019734;28;20651;-61
2023/03/16 04:27:22;;;;;;;25.98;12.43;;;;;;;;;;5018488;28;20482;-62
2023/03/16 04:29:47;;;;;;;25.48;11.98;;;;;;;;;;5024946;28;20490;-61
2023/03/16 04:32:12;;;;;;;27.35;12.38;;;;;;;;;;5020172;28;20037;-59
2023/03/16 04:34:42;;;;;;;27.63;13.30;;;;;;;;;;5019646;28;20053;-61
2023/03/16 04:37:08;;;;;;;26.48;12.55;;;;;;;;;;5023771;28;20458;-60
2023/03/16 04:39:37;;;;;;;27.63;12.43;;;;;;;;;;5018062;28;20037;-60
2023/03/16 04:42:02;;;;;;;22.45;11.02;;;;;;;;;;5021947;28;20399;-59
2023/03/16 04:44:28;;;;;;;23.65;12.80;;;;;;;;;;5019753;28;20037;-60
2023/03/16 04:46:54;;;;;;;25.55;11.48;;;;;;;;;;5017762;28;20087;-61
2023/03/16 04:49:21;;;;;;;25.52;12.32;;;;;;;;;;5038779;28;20139;-59
2023/03/16 04:51:47;;;;;;;24.27;11.82;;;;;;;;;;5023439;28;20040;-59
2023/03/16 04:54:16;;;;;;;24.65;11.43;;;;;;;;;;5025531;28;20041;-59
2023/03/16 04:56:42;;;;;;;26.58;13.00;;;;;;;;;;5025181;28;20137;-62
2023/03/16 04:59:16;;;;;;;25.65;11.55;;;;;;;;;;5039173;28;20108;-61
2023/03/16 05:01:58;;;;;;;25.73;12.65;;;;;;;;;;5022828;28;20037;-59
2023/03/16 05:04:24;;;;;;;24.95;12.05;;;;;;;;;;5023522;28;20030;-63
2023/03/16 05:06:50;;;;;;;26.98;13.15;;;;;;;;;;5024503;28;20038;-59
2023/03/16 05:09:19;;;;;;;24.50;12.35;;;;;;;;;;5014855;28;20084;-59
2023/03/16 05:11:45;;;;;;;25.23;12.40;;;;;;;;;;5023045;28;20148;-59
2023/03/16 05:14:11;;;;;;;28.23;13.82;;;;;;;;;;5025082;28;20025;-59
2023/03/16 05:16:51;;;;;;;30.13;14.15;;;;;;;;;;5024321;28;20497;-63
2023/03/16 05:19:17;;;;;;;29.83;14.10;;;;;;;;;;5038103;28;20152;-60
2023/03/16 05:21:42;;;;;;;29.50;14.15;;;;;;;;;;5024141;28;20042;-59
2023/03/16 05:24:07;;;;;;;31.25;14.43;;;;;;;;;;5022149;28;20497;-61
2023/03/16 05:26:33;;;;;;;27.30;13.35;;;;;;;;;;5023979;28;20830;-62
2023/03/16 05:28:59;;;;;;;26.98;13.80;;;;;;;;;;5020987;28;20037;-60
2023/03/16 05:31:27;;;;;;;29.58;12.88;;;;;;;;;;5021239;28;20033;-65
2023/03/16 05:33:56;;;;;;;26.70;13.48;;;;;;;;;;5023707;28;20733;-61
2023/03/16 05:36:23;;;;;;;34.28;12.88;;;;;;;;;;5037180;28;20026;-62
2023/03/16 05:38:52;;;;;;;26.45;13.20;;;;;;;;;;5024059;28;20505;-63
2023/03/16 05:41:28;;;;;;;31.40;12.82;;;;;;;;;;5024158;28;20044;-59
2023/03/16 05:44:05;;;;;;;24.90;12.27;;;;;;;;;;5021058;28;20034;-60
2023/03/16 05:46:53;;;;;;;26.10;11.48;;;;;;;;;;5009241;28;20774;-61
2023/03/16 05:49:19;;;;;;;20.48;10.32;;;;;;;;;;5024585;28;20075;-60
2023/03/16 05:51:45;;;;;;;22.67;12.65;;;;;;;;;;5021630;28;20156;-60
2023/03/16 05:54:11;;;;;;;24.52;11.82;;;;;;;;;;5022733;28;20033;-61
2023/03/16 05:56:42;;;;;;;25.38;12.73;;;;;;;;;;5021739;28;20060;-61
2023/03/16 05:59:08;;;;;;;30.80;12.63;;;;;;;;;;5019480;28;20477;-60
2023/03/16 06:01:34;;;;;;;25.23;12.18;;;;;;;;;;5019797;28;20401;-62
2023/03/16 06:04:02;;;;;;;25.70;12.37;;;;;;;;;;5017162;28;21137;-62
2023/03/16 06:06:31;;;;;;;31.00;12.75;;;;;;;;;;5020310;28;21162;-62
2023/03/16 06:09:09;;;;;;;24.08;12.50;;;;;;;;;;5023534;28;20044;-62
2023/03/16 06:11:34;;;;;;;27.98;12.95;;;;;;;;;;5019050;28;20021;-61
2023/03/16 06:14:00;;;;;;;31.35;13.73;;;;;;;;;;5013412;28;20029;-60
2023/03/16 06:16:25;;;;;;;25.13;13.18;;;;;;;;;;5020267;28;20033;-61
2023/03/16 06:18:51;;;;;;;29.27;14.40;;;;;;;;;;5028822;28;20397;-58
2023/03/16 06:21:16;;;;;;;28.33;13.85;;;;;;;;;;5023628;28;20037;-60
2023/03/16 06:23:43;;;;;;;28.52;14.15;;;;;;;;;;5025207;28;20026;-61
2023/03/16 06:26:09;;;;;;;31.10;14.50;;;;;;;;;;5023872;28;20033;-59
2023/03/16 06:28:36;;;;;;;35.70;15.55;;;;;;;;;;5022728;28;20029;-60
2023/03/16 06:31:01;;;;;;;27.52;14.07;;;;;;;;;;5017885;28;20726;-59
2023/03/16 06:33:31;;;;;;;26.92;13.60;;;;;;;;;;5023024;28;20125;-61
2023/03/16 06:35:56;;;;;;;26.70;13.23;;;;;;;;;;5019567;28;20025;-60
2023/03/16 06:38:32;;;;;;;30.52;13.20;;;;;;;;;;5008151;28;20120;-60
2023/03/16 06:41:04;;;;;;;25.65;13.65;;;;;;;;;;5025744;28;20029;-62
2023/03/16 06:43:32;;;;;;;25.17;13.27;;;;;;;;;;5022831;28;20056;-59
2023/03/16 06:45:57;;;;;;;28.98;14.00;;;;;;;;;;5022112;28;20128;-61
2023/03/16 06:48:23;;;;;;;28.20;14.13;;;;;;;;;;5022373;28;20033;-61
2023/03/16 06:50:48;;;;;;;26.58;12.68;;;;;;;;;;5023422;28;20080;-60
2023/03/16 06:53:20;;;;;;;22.73;12.77;;;;;;;;;;5022177;28;20033;-61
2023/03/16 06:55:46;;;;;;;31.00;14.18;;;;;;;;;;5019463;28;20127;-63
2023/03/16 06:58:12;;;;;;;30.70;13.80;;;;;;;;;;5019967;28;20029;-60
2023/03/16 07:00:37;;;;;;;24.38;12.73;;;;;;;;;;5035793;28;20074;-60
2023/03/16 07:03:03;;;;;;;25.05;14.07;;;;;;;;;;5025033;28;20037;-58
2023/03/16 07:05:29;;;;;;;27.73;15.13;;;;;;;;;;5023904;28;20037;-60
2023/03/16 07:07:56;;;;;;;31.20;14.73;;;;;;;;;;5025179;28;20374;-61
2023/03/16 07:10:21;;;;;;;26.33;13.95;;;;;;;;;;5024266;28;20485;-59
2023/03/16 07:12:46;;;;;;;28.65;15.30;;;;;;;;;;5024668;28;20033;-59
2023/03/16 07:15:12;;;;;;;27.85;14.88;;;;;;;;;;5024442;28;20040;-61
2023/03/16 07:17:38;;;;;;;25.60;13.25;;;;;;;;;;5024309;28;20029;-59
2023/03/16 07:20:09;;;;;;;24.83;13.05;;;;;;;;;;5029738;28;20119;-59
2023/03/16 07:22:34;;;;;;;23.73;13.25;;;;;;;;;;5025396;28;20049;-62
2023/03/16 07:25:00;;;;;;;27.75;13.57;;;;;;;;;;5026810;28;20044;-61
2023/03/16 07:27:28;;;;;;;27.08;13.13;;;;;;;;;;5024783;28;20068;-60
2023/03/16 07:29:54;;;;;;;21.10;12.13;;;;;;;;;;5024174;28;20037;-59
2023/03/16 07:32:20;;;;;;;21.92;12.05;;;;;;;;;;5007961;28;20033;-59
2023/03/16 07:34:46;;;;;;;19.13;11.35;;;;;;;;;;5018172;28;20181;-59
2023/03/16 07:37:12;;;;;;;22.13;12.57;;;;;;;;;;5020413;28;20029;-60
2023/03/16 07:39:37;;;;;;;22.52;12.13;;;;;;;;;;5020383;28;20045;-59
2023/03/16 07:42:08;;;;;;;22.45;13.50;;;;;;;;;;5028634;28;20069;-60
2023/03/16 07:44:51;;;;;;;20.92;11.27;;;;;;;;;;5027434;28;20383;-60
2023/03/16 07:47:17;;;;;;;23.38;11.50;;;;;;;;;;5022578;28;20471;-60
2023/03/16 07:49:43;;;;;;;19.05;11.27;;;;;;;;;;5023008;28;20395;-61
2023/03/16 07:52:09;;;;;;;19.20;11.02;;;;;;;;;;5024770;28;20087;-59
2023/03/16 07:54:38;;;;;;;20.15;11.32;;;;;;;;;;5021329;28;20034;-58
2023/03/16 07:57:05;;;;;;;21.23;11.43;;;;;;;;;;5013182;28;20103;-61
2023/03/16 07:59:37;;;;;;;21.83;10.82;;;;;;;;;;5026538;28;20375;-62
2023/03/16 08:02:03;;;;;;;16.63;10.47;;;;;;;;;;5038503;28;20073;-58
2023/03/16 08:04:28;;;;;;;18.15;10.57;;;;;;;;;;5019897;28;20466;-59
2023/03/16 08:06:59;;;;;;;20.70;10.88;;;;;;;;;;5023819;28;20036;-60
2023/03/16 08:09:26;;;;;;;16.05;10.25;;;;;;;;;;5022772;28;20044;-58
2023/03/16 08:11:52;;;;;;;20.23;10.57;;;;;;;;;;5023858;28;20037;-59
2023/03/16 08:14:17;;;;;;;19.15;10.45;;;;;;;;;;5023050;28;20060;-59
2023/03/16 08:17:02;;;;;;;19.85;10.70;;;;;;;;;;5021698;28;20116;-60
2023/03/16 08:19:28;;;;;;;16.92;10.23;;;;;;;;;;5041332;28;20034;-58
2023/03/16 08:21:58;;;;;;;19.08;10.85;;;;;;;;;;5022477;28;20037;-59
2023/03/16 08:24:26;;;;;;;17.33;10.30;;;;;;;;;;5021839;28;20040;-59
2023/03/16 08:26:51;;;;;;;22.02;10.57;;;;;;;;;;5040334;28;20025;-60
2023/03/16 08:29:17;;;;;;;17.80;10.00;;;;;;;;;;5025158;28;20041;-59
2023/03/16 08:31:43;;;;;;;17.58;8.95;;;;;;;;;;5022852;28;20033;-59
2023/03/16 08:34:12;;;;;;;15.50;8.73;;;;;;;;;;5005469;28;20483;-60
2023/03/16 08:36:42;;;;;;;16.30;9.23;;;;;;;;;;5023306;28;20038;-59
2023/03/16 08:39:09;;;;;;;15.10;8.95;;;;;;;;;;5027301;28;20053;-59
2023/03/16 08:41:40;;;;;;;18.27;8.77;;;;;;;;;;5024125;28;20068;-59
2023/03/16 08:44:09;;;;;;;13.32;8.02;;;;;;;;;;5025388;28;20567;-59
2023/03/16 08:46:35;;;;;;;14.95;8.77;;;;;;;;;;5012993;28;20087;-59
2023/03/16 08:49:01;;;;;;;11.20;8.02;;;;;;;;;;5036834;28;20049;-63
2023/03/16 08:51:28;;;;;;;15.27;8.85;;;;;;;;;;5020313;28;20638;-59
2023/03/16 08:53:53;;;;;;;17.35;9.73;;;;;;;;;;5023407;28;20048;-59
2023/03/16 08:56:19;;;;;;;15.30;9.20;;;;;;;;;;5023609;28;20034;-59
2023/03/16 08:58:44;;;;;;;13.60;7.28;;;;;;;;;;5024874;28;20029;-59
2023/03/16 09:01:14;;;;;;;11.73;7.57;;;;;;;;;;5024389;28;20074;-62
2023/03/16 09:03:39;;;;;;;17.08;9.38;;;;;;;;;;5024429;28;20037;-58
2023/03/16 09:06:06;;;;;;;14.20;8.57;;;;;;;;;;5018799;28;20103;-60
2023/03/16 09:08:31;;;;;;;15.45;8.95;;;;;;;;;;5021346;28;20030;-59
2023/03/16 09:11:06;;;;;;;12.10;6.80;;;;;;;;;;5020533;28;20037;-60
2023/03/16 09:13:32;;;;;;;13.45;7.10;;;;;;;;;;5024297;28;20047;-57
2023/03/16 09:15:58;;;;;;;12.45;7.30;;;;;;;;;;5021651;28;20346;-59
2023/03/16 09:18:25;;;;;;;12.57;6.68;;;;;;;;;;5023469;28;20034;-58
2023/03/16 09:20:50;;;;;;;9.63;6.22;;;;;;;;;;5021716;28;20504;-57
2023/03/16 09:23:17;;;;;;;10.25;6.03;;;;;;;;;;5020436;28;20029;-59
2023/03/16 09:25:42;;;;;;;10.88;6.20;;;;;;;;;;5021563;28;20033;-60
2023/03/16 09:28:07;;;;;;;8.75;5.70;;;;;;;;;;5021690;28;20484;-60
2023/03/16 09:30:33;;;;;;;11.13;6.15;;;;;;;;;;5022648;28;20029;-61
2023/03/16 09:32:59;;;;;;;9.32;5.15;;;;;;;;;;5022149;28;20583;-59
2023/03/16 09:35:25;;;;;;;11.55;5.70;;;;;;;;;;5021914;28;20060;-59
2023/03/16 09:37:51;;;;;;;7.85;5.13;;;;;;;;;;5024831;28;20116;-59
2023/03/16 09:40:21;;;;;;;11.35;5.60;;;;;;;;;;5024003;28;20433;-58
2023/03/16 09:43:02;;;;;;;10.38;5.30;;;;;;;;;;5024980;28;20505;-58
2023/03/16 09:45:30;;;;;;;7.80;4.60;;;;;;;;;;5023830;28;20037;-59
2023/03/16 09:47:57;;;;;;;8.40;5.28;;;;;;;;;;5023191;28;20044;-58
2023/03/16 09:50:25;;;;;;;10.48;5.05;;;;;;;;;;5025496;28;20044;-61
2023/03/16 09:52:56;;;;;;;9.73;4.57;;;;;;;;;;5026666;28;20053;-60
2023/03/16 09:55:26;;;;;;;6.90;4.45;;;;;;;;;;5024673;28;20037;-62
2023/03/16 09:57:52;;;;;;;11.68;4.72;;;;;;;;;;5032130;28;20056;-60
2023/03/16 10:00:23;;;;;;;7.72;4.07;;;;;;;;;;5019185;28;20151;-62
2023/03/16 10:02:57;;;;;;;7.78;4.25;;;;;;;;;;5023554;28;20037;-58
2023/03/16 10:05:23;;;;;;;7.75;3.40;;;;;;;;;;5026524;28;20040;-58
2023/03/16 10:08:07;;;;;;;6.95;3.90;;;;;;;;;;5024938;28;20029;-58
2023/03/16 10:10:33;;;;;;;6.75;4.05;;;;;;;;;;5023955;28;20104;-59
2023/03/16 10:12:59;;;;;;;6.30;3.70;;;;;;;;;;5024866;28;20030;-59
2023/03/16 10:15:26;;;;;;;6.82;3.50;;;;;;;;;;5024410;28;20029;-59
2023/03/16 10:17:57;;;;;;;5.20;3.33;;;;;;;;;;5025713;28;20044;-59
2023/03/16 10:20:23;;;;;;;7.20;3.95;;;;;;;;;;5024229;28;20026;-59
2023/03/16 10:22:51;;;;;;;6.20;3.65;;;;;;;;;;5023269;28;20125;-58
2023/03/16 10:25:31;;;;;;;5.68;3.38;;;;;;;;;;5023868;28;20041;-59
2023/03/16 10:27:57;;;;;;;5.68;3.55;;;;;;;;;;5023414;28;20071;-60
2023/03/16 10:30:26;;;;;;;6.75;3.65;;;;;;;;;;5023685;28;20715;-58
2023/03/16 10:32:52;;;;;;;7.00;3.35;;;;;;;;;;5024149;28;20037;-60
2023/03/16 10:35:26;;;;;;;5.25;3.30;;;;;;;;;;5027329;28;20033;-60
2023/03/16 10:37:52;;;;;;;6.15;3.28;;;;;;;;;;5026150;28;20107;-59
2023/03/16 10:40:19;;;;;;;5.43;3.30;;;;;;;;;;5028247;28;20456;-58
2023/03/16 10:42:45;;;;;;;5.68;2.85;;;;;;;;;;5025537;28;20750;-59
2023/03/16 10:45:19;;;;;;;5.20;2.85;;;;;;;;;;5025223;28;20033;-59
2023/03/16 10:47:44;;;;;;;6.15;3.00;;;;;;;;;;5023792;28;20094;-60
2023/03/16 10:50:15;;;;;;;4.72;2.75;;;;;;;;;;5023129;28;20029;-59
2023/03/16 10:52:45;;;;;;;4.68;2.70;;;;;;;;;;5024777;28;20076;-59
2023/03/16 10:55:14;;;;;;;4.97;3.05;;;;;;;;;;5028226;28;20034;-58
2023/03/16 10:57:41;;;;;;;5.70;2.70;;;;;;;;;;5024979;28;20033;-58
2023/03/16 11:00:19;;;;;;;5.13;3.10;;;;;;;;;;5026064;28;20061;-58
2023/03/16 11:02:46;;;;;;;5.53;2.78;;;;;;;;;;5025047;28;20029;-58
2023/03/16 11:05:17;;;;;;;5.15;2.60;;;;;;;;;;5026150;28;20033;-60
2023/03/16 11:07:49;;;;;;;4.88;2.83;;;;;;;;;;5024345;28;20029;-58
2023/03/16 11:10:34;;;;;;;6.68;3.05;;;;;;;;;;5025129;28;20047;-60
2023/03/16 11:13:00;;;;;;;7.53;3.28;;;;;;;;;;5024160;28;20032;-58
2023/03/16 11:15:27;;;;;;;6.38;2.60;;;;;;;;;;5028356;28;20029;-59
2023/03/16 11:17:53;;;;;;;5.32;2.88;;;;;;;;;;5026419;28;20454;-59
2023/03/16 11:20:22;;;;;;;8.07;3.00;;;;;;;;;;5030114;28;20037;-59
2023/03/16 11:22:47;;;;;;;5.43;2.65;;;;;;;;;;5024030;28;20033;-58
2023/03/16 11:25:15;;;;;;;4.45;2.47;;;;;;;;;;5025661;28;20071;-58
2023/03/16 11:28:04;;;;;;;4.78;2.83;;;;;;;;;;5025601;28;20037;-58
2023/03/16 11:30:46;;;;;;;6.22;2.72;;;;;;;;;;5022101;28;20105;-59
2023/03/16 11:33:12;;;;;;;5.65;2.58;;;;;;;;;;5023524;28;20033;-59
2023/03/16 11:35:38;;;;;;;5.05;2.65;;;;;;;;;;5025181;28;20033;-59
2023/03/16 11:38:03;;;;;;;3.72;2.30;;;;;;;;;;5024938;28;20017;-59
2023/03/16 11:40:35;;;;;;;3.83;2.65;;;;;;;;;;5026103;28;20033;-61
2023/03/16 11:43:08;;;;;;;4.95;2.42;;;;;;;;;;5024957;28;20120;-58
2023/03/16 11:45:51;;;;;;;8.32;3.88;;;;;;;;;;5024321;28;20029;-59
2023/03/16 11:48:23;;;;;;;3.70;2.30;;;;;;;;;;5023437;28;20037;-60
2023/03/16 11:51:02;;;;;;;4.28;2.30;;;;;;;;;;5021371;28;20038;-59
2023/03/16 11:53:28;;;;;;;5.95;2.72;;;;;;;;;;5020837;28;20075;-60
2023/03/16 11:56:22;;;;;;;7.20;2.50;;;;;;;;;;5023131;28;20041;-60
2023/03/16 11:58:50;;;;;;;4.60;2.60;;;;;;;;;;5016829;28;20056;-59
2023/03/16 12:01:17;;;;;;;4.50;2.38;;;;;;;;;;5022611;28;20030;-58
2023/03/16 12:03:42;;;;;;;5.68;2.50;;;;;;;;;;5023999;28;20140;-60
2023/03/16 12:06:26;;;;;;;5.10;2.47;;;;;;;;;;5023381;28;20117;-62
2023/03/16 12:08:58;;;;;;;4.15;2.38;;;;;;;;;;5028932;28;20033;-60
2023/03/16 12:11:27;;;;;;;5.25;2.67;;;;;;;;;;5021870;28;20457;-58
2023/03/16 12:13:55;;;;;;;7.10;2.70;;;;;;;;;;5022537;28;20026;-61
2023/03/16 12:16:39;;;;;;;3.80;2.30;;;;;;;;;;5029448;28;20037;-59
2023/03/16 12:19:10;;;;;;;4.72;2.75;;;;;;;;;;5023083;28;20102;-59
2023/03/16 12:21:43;;;;;;;5.00;2.78;;;;;;;;;;5023132;28;20068;-60
2023/03/16 12:24:17;;;;;;;4.53;2.85;;;;;;;;;;5023141;28;20059;-60
2023/03/16 12:26:43;;;;;;;5.35;2.80;;;;;;;;;;5021875;28;20044;-59
2023/03/16 12:29:28;;;;;;;5.78;2.97;;;;;;;;;;5022057;28;20039;-57
2023/03/16 12:32:06;;;;;;;5.13;3.10;;;;;;;;;;5021574;28;20055;-58
2023/03/16 12:34:52;;;;;;;5.53;2.63;;;;;;;;;;5020394;28;20041;-60
2023/03/16 12:37:20;;;;;;;5.13;2.55;;;;;;;;;;5017529;28;20049;-59
2023/03/16 12:40:08;;;;;;;5.38;2.72;;;;;;;;;;5022695;28;20141;-59
2023/03/16 12:42:51;;;;;;;4.22;2.60;;;;;;;;;;5019531;28;20142;-61
2023/03/16 12:45:19;;;;;;;4.95;2.63;;;;;;;;;;5023284;28;20515;-59
2023/03/16 12:47:59;;;;;;;5.82;2.65;;;;;;;;;;5022762;28;20032;-59
2023/03/16 12:50:26;;;;;;;4.45;2.60;;;;;;;;;;5022723;28;20025;-62
2023/03/16 12:52:51;;;;;;;3.90;2.70;;;;;;;;;;5022252;28;20062;-61
2023/03/16 12:55:39;;;;;;;4.82;2.60;;;;;;;;;;5021972;28;20180;-59
2023/03/16 12:58:06;;;;;;;4.50;2.40;;;;;;;;;;5022327;28;20026;-63
2023/03/16 13:00:39;;;;;;;5.15;2.50;;;;;;;;;;5021254;28;20025;-60
2023/03/16 13:03:12;;;;;;;6.70;2.60;;;;;;;;;;5020069;28;20049;-60
2023/03/16 13:05:43;;;;;;;3.75;2.45;;;;;;;;;;5021443;28;20029;-61
2023/03/16 13:08:12;;;;;;;5.70;3.20;;;;;;;;;;5025135;28;20103;-59
2023/03/16 13:10:38;;;;;;;5.07;2.70;;;;;;;;;;5026252;28;20044;-58
2023/03/16 13:13:10;;;;;;;5.32;2.85;;;;;;;;;;5028217;28;20890;-58
2023/03/16 13:15:35;;;;;;;6.82;2.80;;;;;;;;;;5014114;28;20037;-62
2023/03/16 13:18:13;;;;;;;4.88;2.80;;;;;;;;;;5026624;28;20022;-59
2023/03/16 13:20:48;;;;;;;4.50;2.90;;;;;;;;;;5026751;28;20037;-59
2023/03/16 13:23:20;;;;;;;3.90;2.58;;;;;;;;;;5027294;28;20124;-59
2023/03/16 13:26:04;;;;;;;4.13;2.55;;;;;;;;;;5026580;28;20025;-61
2023/03/16 13:28:35;;;;;;;5.55;2.63;;;;;;;;;;5026396;28;20386;-61
2023/03/16 13:31:01;;;;;;;3.58;2.17;;;;;;;;;;5028254;28;20037;-61
2023/03/16 13:33:29;;;;;;;4.30;2.50;;;;;;;;;;5028251;28;20841;-60
2023/03/16 13:35:56;;;;;;;4.57;2.60;;;;;;;;;;5028186;28;20083;-59
2023/03/16 13:38:26;;;;;;;2.97;2.00;;;;;;;;;;5026435;28;21074;-59
2023/03/16 13:40:53;;;;;;;4.78;2.53;;;;;;;;;;5025606;28;20555;-59
2023/03/16 13:43:21;;;;;;;5.35;2.53;;;;;;;;;;5027176;28;20033;-60
2023/03/16 13:45:47;;;;;;;5.20;2.50;;;;;;;;;;5029075;28;20040;-59
2023/03/16 13:48:13;;;;;;;6.63;2.40;;;;;;;;;;5028767;28;20038;-60
2023/03/16 13:50:40;;;;;;;4.47;2.30;;;;;;;;;;5027647;28;20029;-60
2023/03/16 13:53:20;;;;;;;4.90;2.38;;;;;;;;;;5028828;28;20049;-60
2023/03/16 13:55:46;;;;;;;4.15;2.30;;;;;;;;;;5026321;28;20148;-60
2023/03/16 13:58:39;;;;;;;8.67;2.50;;;;;;;;;;5025540;28;20045;-63
2023/03/16 14:01:10;;;;;;;4.93;2.60;;;;;;;;;;5028327;28;20850;-59
2023/03/16 14:03:37;;;;;;;4.47;2.38;;;;;;;;;;5028310;28;20069;-59
2023/03/16 14:06:03;;;;;;;5.10;2.78;;;;;;;;;;5028321;28;20033;-59
2023/03/16 14:08:29;;;;;;;5.57;2.53;;;;;;;;;;5026530;28;20048;-61
2023/03/16 14:10:55;;;;;;;4.88;2.40;;;;;;;;;;5026213;28;20033;-58
2023/03/16 14:13:21;;;;;;;5.95;2.80;;;;;;;;;;5027140;28;20030;-58
2023/03/16 14:15:46;;;;;;;4.63;2.50;;;;;;;;;;5027538;28;20549;-60
2023/03/16 14:18:21;;;;;;;5.13;2.30;;;;;;;;;;5026929;28;20040;-57
2023/03/16 14:20:54;;;;;;;4.05;2.58;;;;;;;;;;5024384;28;20033;-59
2023/03/16 14:23:21;;;;;;;5.00;2.50;;;;;;;;;;5040712;28;20088;-59
2023/03/16 14:25:46;;;;;;;;;;;;;;;;;;5039208;28;20037;-59
2023/03/16 14:28:13;;;;;;;5.20;3.30;;;;;;;;;;5025925;28;19913;-60
2023/03/16 14:30:48;;;;;;;3.70;2.40;;;;;;;;;;5024388;28;20375;-57
2023/03/16 14:33:40;;;;;;;5.78;2.85;;;;;;;;;;5026641;28;20041;-58
2023/03/16 14:36:09;;;;;;;4.78;3.17;;;;;;;;;;5014876;28;20038;-56
2023/03/16 14:38:35;;;;;;;8.15;3.38;;;;;;;;;;5032692;28;20129;-60